sensor_id;sensor_type;location;lat;lon;timestamp;pressure;altitude;pressure_sealevel;temperature;humidity
20105;BME280;10212;42.714;23.310;2023-03-31T00:06:38;95134.69;;;7.30;63.98
20105;BME280;10212;42.714;23.310;2023-03-31T00:16:40;95135.56;;;7.22;64.60
20105;BME280;10212;42.714;23.310;2023-03-31T00:26:41;95134.75;;;7.37;65.61
20105;BME280;10212;42.714;23.310;2023-03-31T00:36:41;95128.00;;;7.58;65.11
20105;BME280;10212;42.714;23.310;2023-03-31T00:57:01;95100.09;;;7.82;64.96
20105;BME280;10212;42.714;23.310;2023-03-31T01:17:24;95095.38;;;8.14;63.95
20105;BME280;10212;42.714;23.310;2023-03-31T01:37:31;95111.34;;;8.11;63.03
20105;BME280;10212;42.714;23.310;2023-03-31T01:47:38;95121.72;;;7.89;64.05
20105;BME280;10212;42.714;23.310;2023-03-31T01:57:40;95128.06;;;7.80;64.10
20105;BME280;10212;42.714;23.310;2023-03-31T02:07:49;95136.63;;;7.80;64.85
20105;BME280;10212;42.714;23.310;2023-03-31T02:17:52;95144.91;;;7.91;64.18
20105;BME280;10212;42.714;23.310;2023-03-31T02:27:55;95168.41;;;7.82;66.61
20105;BME280;10212;42.714;23.310;2023-03-31T02:37:57;95182.69;;;6.81;74.49
20105;BME280;10212;42.714;23.310;2023-03-31T02:47:58;95183.19;;;6.14;80.12
20105;BME280;10212;42.714;23.310;2023-03-31T03:18:05;95118.47;;;7.43;79.66
20105;BME280;10212;42.714;23.310;2023-03-31T03:28:06;95110.47;;;7.60;80.58
20105;BME280;10212;42.714;23.310;2023-03-31T03:38:06;95110.47;;;7.82;82.90
20105;BME280;10212;42.714;23.310;2023-03-31T03:48:06;95101.53;;;8.06;75.57
20105;BME280;10212;42.714;23.310;2023-03-31T03:58:07;95094.47;;;8.00;79.07
20105;BME280;10212;42.714;23.310;2023-03-31T04:08:07;95103.94;;;8.08;78.09
20105;BME280;10212;42.714;23.310;2023-03-31T04:18:08;95112.09;;;8.05;77.04
20105;BME280;10212;42.714;23.310;2023-03-31T04:28:09;95103.06;;;8.01;77.73
20105;BME280;10212;42.714;23.310;2023-03-31T04:38:20;95093.06;;;7.98;78.11
20105;BME280;10212;42.714;23.310;2023-03-31T04:48:21;95081.91;;;8.04;78.74
20105;BME280;10212;42.714;23.310;2023-03-31T04:58:21;95081.13;;;8.32;79.63
20105;BME280;10212;42.714;23.310;2023-03-31T05:08:22;95062.69;;;8.49;77.44
20105;BME280;10212;42.714;23.310;2023-03-31T05:18:22;95059.66;;;8.74;76.95
20105;BME280;10212;42.714;23.310;2023-03-31T05:28:22;95052.59;;;9.03;76.07
20105;BME280;10212;42.714;23.310;2023-03-31T05:38:23;95042.66;;;9.27;75.52
20105;BME280;10212;42.714;23.310;2023-03-31T05:48:23;95046.69;;;9.29;79.34
20105;BME280;10212;42.714;23.310;2023-03-31T05:58:23;95055.34;;;9.57;76.07
20105;BME280;10212;42.714;23.310;2023-03-31T06:08:24;95057.19;;;9.91;71.61
20105;BME280;10212;42.714;23.310;2023-03-31T06:18:28;95058.19;;;10.44;65.27
20105;BME280;10212;42.714;23.310;2023-03-31T06:28:29;95045.38;;;10.63;63.90
20105;BME280;10212;42.714;23.310;2023-03-31T06:38:30;95041.94;;;10.69;61.82
20105;BME280;10212;42.714;23.310;2023-03-31T06:48:30;95057.63;;;11.61;56.27
20105;BME280;10212;42.714;23.310;2023-03-31T06:58:31;95050.13;;;12.54;52.76
20105;BME280;10212;42.714;23.310;2023-03-31T07:08:31;95017.47;;;12.38;53.31
20105;BME280;10212;42.714;23.310;2023-03-31T07:18:31;94976.66;;;12.37;53.16
20105;BME280;10212;42.714;23.310;2023-03-31T07:28:33;94992.72;;;12.60;52.90
20105;BME280;10212;42.714;23.310;2023-03-31T07:38:34;94986.97;;;12.88;53.49
20105;BME280;10212;42.714;23.310;2023-03-31T07:48:35;94985.53;;;12.74;54.10
20105;BME280;10212;42.714;23.310;2023-03-31T07:58:35;94989.81;;;12.87;51.78
20105;BME280;10212;42.714;23.310;2023-03-31T08:08:36;94971.59;;;13.11;51.17
20105;BME280;10212;42.714;23.310;2023-03-31T08:18:37;94963.09;;;13.16;50.42
20105;BME280;10212;42.714;23.310;2023-03-31T08:28:38;94962.84;;;12.86;50.94
20105;BME280;10212;42.714;23.310;2023-03-31T08:38:39;94948.22;;;13.28;50.54
20105;BME280;10212;42.714;23.310;2023-03-31T08:48:54;94953.47;;;14.07;47.82
20105;BME280;10212;42.714;23.310;2023-03-31T08:58:56;94931.56;;;14.37;46.99
20105;BME280;10212;42.714;23.310;2023-03-31T09:09:01;94917.28;;;14.57;44.69
20105;BME280;10212;42.714;23.310;2023-03-31T09:19:02;94926.22;;;14.32;45.77
20105;BME280;10212;42.714;23.310;2023-03-31T09:29:04;94917.88;;;14.35;45.35
20105;BME280;10212;42.714;23.310;2023-03-31T09:39:10;94911.25;;;14.44;44.73
20105;BME280;10212;42.714;23.310;2023-03-31T09:49:12;94906.25;;;15.13;43.57
20105;BME280;10212;42.714;23.310;2023-03-31T09:59:14;94902.31;;;15.28;42.95
20105;BME280;10212;42.714;23.310;2023-03-31T10:09:16;94873.09;;;15.41;43.38
20105;BME280;10212;42.714;23.310;2023-03-31T10:19:22;94856.47;;;16.10;41.58
20105;BME280;10212;42.714;23.310;2023-03-31T10:29:28;94858.28;;;16.54;41.35
20105;BME280;10212;42.714;23.310;2023-03-31T10:39:30;94836.78;;;16.12;42.88
20105;BME280;10212;42.714;23.310;2023-03-31T10:49:36;94825.13;;;16.08;42.61
20105;BME280;10212;42.714;23.310;2023-03-31T11:10:02;94804.94;;;16.36;41.47
20105;BME280;10212;42.714;23.310;2023-03-31T11:20:12;94794.44;;;15.74;43.32
20105;BME280;10212;42.714;23.310;2023-03-31T11:50:26;94761.19;;;15.63;43.69
20105;BME280;10212;42.714;23.310;2023-03-31T12:00:29;94741.94;;;15.57;43.51
20105;BME280;10212;42.714;23.310;2023-03-31T12:10:33;94727.53;;;15.82;43.52
20105;BME280;10212;42.714;23.310;2023-03-31T12:30:54;94699.22;;;15.89;42.69
20105;BME280;10212;42.714;23.310;2023-03-31T13:01:33;94648.13;;;17.65;39.74
20105;BME280;10212;42.714;23.310;2023-03-31T13:21:51;94592.47;;;17.56;38.88
20105;BME280;10212;42.714;23.310;2023-03-31T13:42:13;94552.53;;;16.57;41.27
20105;BME280;10212;42.714;23.310;2023-03-31T13:52:27;94525.59;;;16.98;40.70
20105;BME280;10212;42.714;23.310;2023-03-31T14:12:34;94512.53;;;17.24;39.76
20105;BME280;10212;42.714;23.310;2023-03-31T14:43:01;94488.56;;;17.21;40.40
20105;BME280;10212;42.714;23.310;2023-03-31T14:53:01;94466.88;;;16.98;40.97
20105;BME280;10212;42.714;23.310;2023-03-31T15:03:04;94463.69;;;16.85;41.30
20105;BME280;10212;42.714;23.310;2023-03-31T15:13:07;94457.38;;;16.92;41.16
20105;BME280;10212;42.714;23.310;2023-03-31T15:33:41;94451.00;;;16.77;41.34
20105;BME280;10212;42.714;23.310;2023-03-31T15:43:46;94453.06;;;16.70;41.77
20105;BME280;10212;42.714;23.310;2023-03-31T15:53:47;94440.19;;;16.73;41.36
20105;BME280;10212;42.714;23.310;2023-03-31T16:03:53;94448.59;;;16.70;41.58
20105;BME280;10212;42.714;23.310;2023-03-31T16:13:55;94439.69;;;16.18;42.75
20105;BME280;10212;42.714;23.310;2023-03-31T16:23:57;94429.06;;;15.69;43.88
20105;BME280;10212;42.714;23.310;2023-03-31T16:33:58;94435.75;;;15.22;45.22
20105;BME280;10212;42.714;23.310;2023-03-31T16:43:59;94440.09;;;14.83;46.31
20105;BME280;10212;42.714;23.310;2023-03-31T16:54:00;94425.94;;;14.39;47.88
20105;BME280;10212;42.714;23.310;2023-03-31T17:04:00;94412.00;;;14.16;48.40
20105;BME280;10212;42.714;23.310;2023-03-31T17:14:00;94423.25;;;13.94;49.64
20105;BME280;10212;42.714;23.310;2023-03-31T17:24:01;94441.78;;;13.70;50.53
20105;BME280;10212;42.714;23.310;2023-03-31T17:34:05;94424.81;;;13.44;51.40
20105;BME280;10212;42.714;23.310;2023-03-31T17:44:06;94429.97;;;13.38;52.81
20105;BME280;10212;42.714;23.310;2023-03-31T17:54:08;94426.78;;;13.19;53.69
20105;BME280;10212;42.714;23.310;2023-03-31T18:04:09;94427.13;;;13.11;54.24
20105;BME280;10212;42.714;23.310;2023-03-31T18:14:10;94424.59;;;12.99;54.39
20105;BME280;10212;42.714;23.310;2023-03-31T18:24:11;94419.69;;;12.73;55.43
20105;BME280;10212;42.714;23.310;2023-03-31T18:34:12;94418.16;;;12.48;56.72
20105;BME280;10212;42.714;23.310;2023-03-31T18:44:15;94419.53;;;12.39;56.70
20105;BME280;10212;42.714;23.310;2023-03-31T18:54:16;94412.28;;;12.17;57.75
20105;BME280;10212;42.714;23.310;2023-03-31T19:04:17;94420.81;;;12.12;58.28
20105;BME280;10212;42.714;23.310;2023-03-31T19:14:17;94421.81;;;11.75;60.24
20105;BME280;10212;42.714;23.310;2023-03-31T19:24:17;94427.47;;;11.48;60.78
20105;BME280;10212;42.714;23.310;2023-03-31T19:34:18;94418.03;;;11.35;61.51
20105;BME280;10212;42.714;23.310;2023-03-31T19:44:18;94417.88;;;11.18;62.07
20105;BME280;10212;42.714;23.310;2023-03-31T19:54:19;94413.88;;;11.03;62.95
20105;BME280;10212;42.714;23.310;2023-03-31T20:04:19;94418.38;;;10.96;63.04
20105;BME280;10212;42.714;23.310;2023-03-31T20:14:20;94422.50;;;10.73;64.12
20105;BME280;10212;42.714;23.310;2023-03-31T20:24:20;94415.19;;;10.63;65.15
20105;BME280;10212;42.714;23.310;2023-03-31T20:34:21;94409.38;;;10.42;66.06
20105;BME280;10212;42.714;23.310;2023-03-31T20:44:21;94402.25;;;10.19;67.64
20105;BME280;10212;42.714;23.310;2023-03-31T20:54:22;94412.31;;;10.15;67.12
20105;BME280;10212;42.714;23.310;2023-03-31T21:04:22;94409.88;;;10.13;67.18
20105;BME280;10212;42.714;23.310;2023-03-31T21:14:22;94401.06;;;10.15;67.83
20105;BME280;10212;42.714;23.310;2023-03-31T21:24:23;94394.41;;;10.00;68.08
20105;BME280;10212;42.714;23.310;2023-03-31T21:34:23;94391.72;;;9.88;69.94
20105;BME280;10212;42.714;23.310;2023-03-31T21:44:23;94375.22;;;9.94;70.17
20105;BME280;10212;42.714;23.310;2023-03-31T21:54:24;94381.81;;;9.78;70.50
20105;BME280;10212;42.714;23.310;2023-03-31T22:04:25;94375.16;;;9.82;70.65
20105;BME280;10212;42.714;23.310;2023-03-31T22:14:25;94373.84;;;10.10;69.63
20105;BME280;10212;42.714;23.310;2023-03-31T22:24:26;94365.81;;;10.12;68.62
20105;BME280;10212;42.714;23.310;2023-03-31T22:34:26;94363.16;;;9.81;69.84
20105;BME280;10212;42.714;23.310;2023-03-31T22:44:26;94365.47;;;9.71;71.35
20105;BME280;10212;42.714;23.310;2023-03-31T22:54:26;94353.81;;;9.73;71.85
20105;BME280;10212;42.714;23.310;2023-03-31T23:04:27;94360.63;;;9.74;71.62
20105;BME280;10212;42.714;23.310;2023-03-31T23:14:27;94334.94;;;9.97;70.78
20105;BME280;10212;42.714;23.310;2023-03-31T23:24:28;94329.34;;;10.12;70.21
20105;BME280;10212;42.714;23.310;2023-03-31T23:34:29;94331.13;;;9.55;71.29
20105;BME280;10212;42.714;23.310;2023-03-31T23:44:29;94321.00;;;9.28;71.99
20105;BME280;10212;42.714;23.310;2023-03-31T23:54:30;94307.66;;;9.18;72.15
